Time;durP1;ratioP1;P1;durP2;ratioP2;P2;SDS_P1;SDS_P2;PMS_P1;PMS_P2;Temp;Humidity;BMP_temperature;BMP_pressure;BME280_temperature;BME280_humidity;BME280_pressure;Samples;Min_cycle;Max_cycle;Signal;HPM_P1;HPM_P2
2020/12/14 00:00:22;;;;;;;12.35;10.38;;;;;;;1.60;86.77;98270.29;1778985;80;20945;-71
2020/12/14 00:02:49;;;;;;;15.20;13.22;;;;;;;1.61;86.79;98277.80;1778984;80;21037;-72
2020/12/14 00:05:17;;;;;;;15.85;12.40;;;;;;;1.60;86.73;98285.32;1778847;80;20960;-71
2020/12/14 00:07:45;;;;;;;19.40;13.45;;;;;;;1.59;86.76;98283.58;1779054;80;21377;-71
2020/12/14 00:10:12;;;;;;;14.73;12.05;;;;;;;1.59;86.75;98287.11;1778914;80;20928;-71
2020/12/14 00:12:41;;;;;;;16.55;11.88;;;;;;;1.59;86.65;98288.44;1778897;80;21604;-71
2020/12/14 00:15:08;;;;;;;17.40;12.73;;;;;;;1.58;86.63;98288.48;1778923;80;21024;-71
2020/12/14 00:17:36;;;;;;;17.23;12.30;;;;;;;1.55;86.63;98293.89;1778954;80;20940;-71
2020/12/14 00:20:04;;;;;;;17.48;12.90;;;;;;;1.54;86.67;98300.95;1778853;80;20929;-71
2020/12/14 00:22:32;;;;;;;15.38;11.15;;;;;;;1.54;86.72;98307.56;1778802;80;20920;-71
2020/12/14 00:25:01;;;;;;;16.35;11.95;;;;;;;1.55;86.72;98306.66;1778901;80;20980;-71
2020/12/14 00:27:28;;;;;;;16.05;11.75;;;;;;;1.55;86.67;98313.74;1778958;80;21139;-71
2020/12/14 00:29:56;;;;;;;15.75;13.53;;;;;;;1.52;86.71;98313.38;1778821;80;21495;-71
2020/12/14 00:32:24;;;;;;;18.10;13.22;;;;;;;1.50;86.71;98308.61;1778871;80;20913;-71
2020/12/14 00:34:52;;;;;;;14.50;12.03;;;;;;;1.50;86.80;98315.66;1778816;80;20932;-71
2020/12/14 00:37:20;;;;;;;17.20;13.83;;;;;;;1.50;86.81;98317.88;1778986;80;20975;-71
2020/12/14 00:39:48;;;;;;;17.75;13.68;;;;;;;1.50;86.83;98323.16;1778864;80;21642;-71
2020/12/14 00:42:15;;;;;;;17.42;14.43;;;;;;;1.50;86.89;98320.52;1778825;80;20956;-70
2020/12/14 00:44:43;;;;;;;17.80;13.50;;;;;;;1.50;86.94;98322.28;1779000;80;21371;-71
2020/12/14 00:47:11;;;;;;;18.40;13.35;;;;;;;1.49;86.98;98321.89;1778985;80;21011;-71
2020/12/14 00:49:38;;;;;;;15.30;12.88;;;;;;;1.51;87.00;98322.69;1774372;80;20964;-71
2020/12/14 00:52:06;;;;;;;17.87;13.98;;;;;;;1.52;87.00;98316.49;1770353;81;21174;-71
2020/12/14 00:54:34;;;;;;;17.70;12.98;;;;;;;1.52;87.02;98324.44;1770356;81;20933;-71
2020/12/14 00:57:01;;;;;;;20.65;13.75;;;;;;;1.51;87.10;98323.55;1770434;81;20964;-71
2020/12/14 00:59:29;;;;;;;18.50;12.82;;;;;;;1.52;87.03;98323.11;1770412;81;21000;-71
2020/12/14 01:01:57;;;;;;;17.80;12.28;;;;;;;1.53;86.99;98328.35;1770430;80;21043;-71
2020/12/14 01:04:24;;;;;;;11.97;9.78;;;;;;;1.53;86.93;98326.14;1770280;81;21360;-71
2020/12/14 01:06:52;;;;;;;13.70;10.93;;;;;;;1.51;86.89;98325.34;1770383;81;21406;-71
2020/12/14 01:09:21;;;;;;;14.30;11.43;;;;;;;1.49;86.78;98329.36;1770436;81;20957;-71
2020/12/14 01:11:48;;;;;;;11.70;8.73;;;;;;;1.47;86.68;98329.88;1770352;81;20996;-71
2020/12/14 01:14:15;;;;;;;11.48;10.15;;;;;;;1.48;86.74;98330.73;1770539;81;21308;-71
2020/12/14 01:16:48;;;;;;;12.68;10.13;;;;;;;1.46;86.69;98336.08;1770381;80;22652;-71
2020/12/14 01:19:16;;;;;;;9.15;8.18;;;;;;;1.44;86.74;98342.75;1770411;81;20956;-71
2020/12/14 01:21:44;;;;;;;11.43;9.23;;;;;;;1.45;86.71;98340.95;1770436;81;20889;-71
2020/12/14 01:24:13;;;;;;;9.30;8.10;;;;;;;1.42;86.69;98339.30;1770328;81;20889;-71
2020/12/14 01:26:41;;;;;;;13.32;10.35;;;;;;;1.42;86.72;98340.63;1770401;80;21016;-71
2020/12/14 01:29:08;;;;;;;14.18;10.98;;;;;;;1.43;86.69;98345.02;1770467;81;21129;-71
2020/12/14 01:31:36;;;;;;;9.58;8.35;;;;;;;1.42;86.78;98348.56;1770349;81;20901;-71
2020/12/14 01:34:03;;;;;;;11.65;9.90;;;;;;;1.40;86.88;98350.41;1770320;81;20941;-70
2020/12/14 01:36:30;;;;;;;12.93;10.35;;;;;;;1.40;86.73;98346.44;1770294;81;20933;-70
2020/12/14 01:38:58;;;;;;;10.85;9.58;;;;;;;1.40;86.74;98349.08;1770388;81;20989;-71
2020/12/14 01:41:25;;;;;;;13.05;10.50;;;;;;;1.39;86.75;98345.16;1770345;81;21370;-71
2020/12/14 01:43:52;;;;;;;13.28;11.50;;;;;;;1.38;86.81;98349.56;1770282;81;20952;-71
2020/12/14 01:46:29;;;;;;;11.97;9.60;;;;;;;1.39;86.86;98357.07;1770362;80;21020;-71
2020/12/14 01:49:02;;;;;;;13.80;11.12;;;;;;;1.39;86.96;98355.28;1770237;80;21021;-71
2020/12/14 01:51:30;;;;;;;18.37;13.67;;;;;;;1.40;86.92;98354.81;1749637;81;20956;-70
2020/12/14 01:53:59;;;;;;;17.77;12.80;;;;;;;1.42;86.88;98359.15;1770383;80;21205;-71
2020/12/14 01:56:29;;;;;;;20.57;13.88;;;;;;;1.42;86.93;98355.18;1770280;80;21008;-71
2020/12/14 01:58:57;;;;;;;13.90;11.60;;;;;;;1.40;86.89;98357.45;1770363;81;20984;-70
2020/12/14 02:01:25;;;;;;;12.50;10.75;;;;;;;1.39;86.82;98357.92;1770264;80;20881;-70
2020/12/14 02:03:55;;;;;;;18.42;12.82;;;;;;;1.40;86.74;98362.31;1770211;81;20932;-70
2020/12/14 02:06:23;;;;;;;18.70;13.05;;;;;;;1.40;86.68;98364.08;1770303;81;21749;-70
2020/12/14 02:08:50;;;;;;;19.35;14.38;;;;;;;1.37;86.70;98365.50;1770295;81;20977;-71
2020/12/14 02:11:18;;;;;;;18.55;13.20;;;;;;;1.38;86.76;98359.30;1770390;81;21008;-72
2020/12/14 02:13:47;;;;;;;14.07;11.93;;;;;;;1.37;86.85;98361.52;1770358;80;20933;-72
2020/12/14 02:16:14;;;;;;;19.75;13.78;;;;;;;1.39;86.89;98357.07;1770357;80;20893;-71
2020/12/14 02:18:43;;;;;;;14.93;12.60;;;;;;;1.40;86.79;98355.70;1770365;81;21910;-71
2020/12/14 02:21:16;;;;;;;17.62;13.72;;;;;;;1.39;86.66;98355.28;1770305;81;21016;-71
2020/12/14 02:23:46;;;;;;;17.00;13.15;;;;;;;1.36;86.36;98364.64;1770362;81;20925;-71
2020/12/14 02:26:14;;;;;;;15.23;12.78;;;;;;;1.34;86.28;98356.33;1770351;81;20885;-71
2020/12/14 02:28:42;;;;;;;13.90;11.45;;;;;;;1.34;86.26;98362.52;1770427;80;20878;-71
2020/12/14 02:31:12;;;;;;;16.67;13.18;;;;;;;1.33;86.35;98360.77;1770434;81;21192;-71
2020/12/14 02:33:40;;;;;;;14.35;12.35;;;;;;;1.32;86.26;98362.14;1770335;81;21454;-71
2020/12/14 02:36:08;;;;;;;16.90;11.90;;;;;;;1.31;86.29;98363.94;1770242;81;20977;-71
2020/12/14 02:38:35;;;;;;;12.50;10.68;;;;;;;1.32;86.30;98368.29;1770436;81;20931;-71
2020/12/14 02:41:03;;;;;;;13.20;11.80;;;;;;;1.32;86.21;98373.58;1770351;81;20925;-71
2020/12/14 02:43:30;;;;;;;12.95;10.70;;;;;;;1.32;86.11;98370.94;1770256;81;21799;-72
2020/12/14 02:45:58;;;;;;;13.03;11.63;;;;;;;1.32;86.02;98378.88;1770089;80;21000;-73
2020/12/14 02:48:26;;;;;;;16.52;13.32;;;;;;;1.29;85.97;98373.68;1770363;81;20929;-70
2020/12/14 02:50:53;;;;;;;14.40;12.00;;;;;;;1.27;85.94;98368.91;1770142;81;21371;-70
2020/12/14 02:53:22;;;;;;;15.83;13.38;;;;;;;1.28;86.03;98374.62;1770276;80;20998;-71
2020/12/14 02:55:50;;;;;;;12.58;10.95;;;;;;;1.29;86.02;98374.15;1770294;81;21004;-71
2020/12/14 02:58:17;;;;;;;11.35;9.80;;;;;;;1.28;85.98;98379.91;1770312;81;20988;-71
2020/12/14 03:00:47;;;;;;;11.73;10.08;;;;;;;1.27;85.95;98378.17;1770262;81;20929;-71
2020/12/14 03:03:15;;;;;;;9.05;8.08;;;;;;;1.26;85.82;98379.07;1770396;80;21355;-70
2020/12/14 03:05:42;;;;;;;10.28;9.18;;;;;;;1.26;85.74;98379.07;1770217;81;21012;-72
2020/12/14 03:08:09;;;;;;;9.20;8.25;;;;;;;1.25;85.73;98382.66;1770335;81;21182;-72
2020/12/14 03:10:37;;;;;;;8.75;7.87;;;;;;;1.24;85.78;98380.91;1770276;81;22170;-72
2020/12/14 03:13:04;;;;;;;8.73;7.83;;;;;;;1.23;85.72;98381.81;1770351;81;20921;-72
2020/12/14 03:15:32;;;;;;;10.10;8.20;;;;;;;1.22;85.66;98378.78;1770239;81;20909;-72
2020/12/14 03:18:01;;;;;;;10.32;8.48;;;;;;;1.22;85.66;98386.72;1770402;81;20992;-72
2020/12/14 03:20:30;;;;;;;9.40;8.33;;;;;;;1.22;85.66;98382.75;1770225;81;21409;-72
2020/12/14 03:22:57;;;;;;;10.03;8.90;;;;;;;1.21;85.71;98383.66;1770257;81;21027;-72
2020/12/14 03:25:25;;;;;;;9.65;7.95;;;;;;;1.19;85.77;98392.11;1770234;81;20921;-71
2020/12/14 03:27:52;;;;;;;9.63;8.38;;;;;;;1.19;85.82;98393.42;1770278;81;20874;-71
2020/12/14 03:30:21;;;;;;;12.13;8.53;;;;;;;1.21;85.85;98395.55;1770279;81;21395;-72
2020/12/14 03:32:50;;;;;;;8.38;7.35;;;;;;;1.21;85.86;98391.59;1770415;81;21360;-71
2020/12/14 03:35:18;;;;;;;9.45;7.83;;;;;;;1.21;85.91;98404.81;1770159;81;20960;-71
2020/12/14 03:37:45;;;;;;;11.48;8.00;;;;;;;1.21;85.91;98405.67;1770284;80;20941;-71
2020/12/14 03:40:15;;;;;;;10.70;8.45;;;;;;;1.21;85.91;98406.14;1770300;81;20902;-71
2020/12/14 03:42:43;;;;;;;9.98;8.33;;;;;;;1.22;85.94;98407.88;1770351;81;20921;-70
2020/12/14 03:45:10;;;;;;;11.78;9.78;;;;;;;1.23;85.96;98415.77;1770189;80;21466;-70
2020/12/14 03:47:38;;;;;;;12.20;10.20;;;;;;;1.23;85.98;98419.74;1770243;81;21056;-71
2020/12/14 03:50:06;;;;;;;11.00;9.53;;;;;;;1.23;86.06;98416.21;1773912;80;20889;-71
2020/12/14 03:52:33;;;;;;;11.18;8.85;;;;;;;1.24;86.15;98420.59;1784577;80;20936;-71
2020/12/14 03:55:01;;;;;;;11.68;9.55;;;;;;;1.23;86.02;98409.16;1784608;80;20921;-72
2020/12/14 03:57:33;;;;;;;11.80;10.55;;;;;;;1.25;86.10;98419.70;1784756;80;22656;-72
2020/12/14 04:00:00;;;;;;;12.65;9.18;;;;;;;1.26;86.17;98413.03;1784734;80;20980;-71
2020/12/14 04:02:28;;;;;;;9.50;8.45;;;;;;;1.26;86.28;98417.44;1784726;80;20980;-72
2020/12/14 04:04:56;;;;;;;8.85;7.92;;;;;;;1.27;86.26;98416.53;1784531;80;20920;-71
2020/12/14 04:07:23;;;;;;;8.35;7.50;;;;;;;1.25;86.09;98412.61;1784726;80;20924;-71
2020/12/14 04:09:51;;;;;;;9.80;8.58;;;;;;;1.25;85.94;98417.05;1784762;80;21768;-72
2020/12/14 04:12:19;;;;;;;9.93;8.58;;;;;;;1.25;85.96;98417.05;1784687;80;20980;-72
2020/12/14 04:14:47;;;;;;;12.47;9.25;;;;;;;1.25;86.06;98425.84;1784724;80;20893;-72
2020/12/14 04:17:15;;;;;;;9.28;8.25;;;;;;;1.26;86.08;98424.05;1784730;80;20892;-71
2020/12/14 04:19:42;;;;;;;8.85;7.95;;;;;;;1.24;86.06;98421.92;1784766;80;20944;-72
2020/12/14 04:22:09;;;;;;;10.03;8.08;;;;;;;1.26;85.97;98426.70;1784655;80;21445;-71
2020/12/14 04:24:37;;;;;;;8.53;7.65;;;;;;;1.26;86.01;98431.98;1784713;80;21050;-71
2020/12/14 04:27:04;;;;;;;9.98;8.63;;;;;;;1.27;86.07;98437.70;1784745;80;21366;-71
2020/12/14 04:29:31;;;;;;;9.90;8.83;;;;;;;1.28;86.13;98448.70;1784594;80;20984;-72
2020/12/14 04:31:59;;;;;;;9.50;8.28;;;;;;;1.29;85.98;98451.74;1784821;80;21422;-72
2020/12/14 04:34:26;;;;;;;11.28;9.00;;;;;;;1.28;85.89;98450.03;1784722;80;21439;-72
2020/12/14 04:36:54;;;;;;;9.58;8.35;;;;;;;1.28;85.85;98452.67;1784717;80;21482;-72
2020/12/14 04:39:22;;;;;;;10.53;9.43;;;;;;;1.28;85.79;98454.00;1784689;80;20944;-72
2020/12/14 04:41:51;;;;;;;8.63;7.60;;;;;;;1.27;85.77;98446.96;1784669;80;20975;-72
2020/12/14 04:44:18;;;;;;;11.20;9.18;;;;;;;1.27;85.84;98457.55;1732525;80;20979;-72
2020/12/14 04:46:48;;;;;;;9.08;7.97;;;;;;;1.26;85.91;98459.77;1784742;80;22276;-72
2020/12/14 04:49:16;;;;;;;10.63;9.13;;;;;;;1.26;85.90;98463.74;1784512;80;20900;-72
2020/12/14 04:51:44;;;;;;;9.73;8.65;;;;;;;1.24;85.88;98467.76;1773160;80;20933;-73
2020/12/14 04:54:12;;;;;;;11.48;9.75;;;;;;;1.24;85.89;98469.55;1770395;81;20909;-72
2020/12/14 04:56:41;;;;;;;10.40;9.35;;;;;;;1.25;86.03;98468.64;1719138;81;20996;-72
2020/12/14 04:59:09;;;;;;;11.68;10.05;;;;;;;1.25;86.12;98469.50;1770426;81;21417;-72
2020/12/14 05:01:37;;;;;;;11.43;9.75;;;;;;;1.26;86.01;98476.97;1770379;81;21461;-72
2020/12/14 05:04:04;;;;;;;10.50;8.90;;;;;;;1.27;85.98;98478.72;1770436;81;20914;-72
2020/12/14 05:06:49;;;;;;;10.98;9.55;;;;;;;1.25;85.97;98482.73;1770215;81;20948;-72
2020/12/14 05:09:20;;;;;;;10.58;9.13;;;;;;;1.27;85.98;98487.98;1770541;81;21057;-72
2020/12/14 05:11:48;;;;;;;12.90;10.25;;;;;;;1.26;85.91;98498.14;1770387;81;21007;-72
2020/12/14 05:14:22;;;;;;;12.68;10.32;;;;;;;1.25;85.99;98494.64;1770372;81;21367;-72
2020/12/14 05:16:50;;;;;;;11.18;9.93;;;;;;;1.26;86.02;98499.47;1770427;81;21012;-72
2020/12/14 05:19:24;;;;;;;12.33;10.08;;;;;;;1.28;86.03;98499.42;1770407;81;20980;-72
2020/12/14 05:22:01;;;;;;;12.23;10.50;;;;;;;1.27;86.06;98501.21;1770514;81;21004;-71
2020/12/14 05:24:31;;;;;;;12.58;11.28;;;;;;;1.27;86.06;98507.83;1769944;81;21431;-72
2020/12/14 05:27:00;;;;;;;11.63;9.90;;;;;;;1.25;86.12;98507.02;1770449;80;21008;-72
2020/12/14 05:29:30;;;;;;;14.13;10.63;;;;;;;1.25;86.20;98509.20;1770403;81;20984;-72
2020/12/14 05:32:11;;;;;;;12.20;10.78;;;;;;;1.27;86.14;98511.80;1770335;81;21019;-72
2020/12/14 05:34:41;;;;;;;12.93;10.78;;;;;;;1.27;86.15;98502.53;1770335;81;20996;-72
2020/12/14 05:37:10;;;;;;;12.28;10.98;;;;;;;1.29;86.14;98511.28;1770363;80;21364;-72
2020/12/14 05:39:39;;;;;;;13.43;9.98;;;;;;;1.28;86.03;98513.54;1770349;81;21071;-72
2020/12/14 05:42:18;;;;;;;12.60;9.60;;;;;;;1.28;85.98;98513.54;1770308;81;21047;-71
2020/12/14 05:44:47;;;;;;;12.45;11.15;;;;;;;1.28;85.92;98517.51;1770281;80;21521;-72
2020/12/14 05:47:30;;;;;;;12.05;9.58;;;;;;;1.28;85.89;98519.27;1770448;81;21355;-71
2020/12/14 05:49:59;;;;;;;13.43;11.78;;;;;;;1.29;85.92;98521.87;1770411;81;21431;-72
2020/12/14 05:52:32;;;;;;;11.10;9.73;;;;;;;1.29;85.92;98531.13;1777993;80;21599;-72
2020/12/14 05:55:04;;;;;;;13.28;10.68;;;;;;;1.28;85.83;98530.73;1779173;80;21002;-72
2020/12/14 05:57:37;;;;;;;13.75;12.25;;;;;;;1.27;85.61;98534.29;1778916;80;21533;-72
2020/12/14 06:00:08;;;;;;;17.17;13.58;;;;;;;1.27;85.50;98536.94;1778926;80;20873;-72
2020/12/14 06:02:36;;;;;;;16.70;13.95;;;;;;;1.24;85.46;98537.02;1778800;80;21356;-72
2020/12/14 06:05:06;;;;;;;22.60;16.55;;;;;;;1.24;85.51;98537.02;1748765;80;21019;-73
2020/12/14 06:07:35;;;;;;;18.27;14.87;;;;;;;1.24;85.52;98543.17;1778826;80;20925;-71
2020/12/14 06:10:11;;;;;;;19.70;14.75;;;;;;;1.24;85.50;98547.61;1778772;80;20928;-73
2020/12/14 06:12:46;;;;;;;20.57;15.25;;;;;;;1.21;85.44;98545.91;1778359;80;20979;-72
2020/12/14 06:15:16;;;;;;;15.70;14.03;;;;;;;1.21;85.46;98541.94;1778898;80;21264;-71
2020/12/14 06:17:49;;;;;;;16.40;13.48;;;;;;;1.19;85.51;98545.56;1778791;80;20918;-71
2020/12/14 06:20:19;;;;;;;18.48;13.88;;;;;;;1.17;85.57;98548.72;1778269;80;20936;-73
2020/12/14 06:22:52;;;;;;;14.50;12.05;;;;;;;1.13;85.62;98543.94;1778701;80;21098;-72
2020/12/14 06:25:52;;;;;;;17.62;12.43;;;;;;;1.16;85.78;98550.94;1874921;75;28393;-72
2020/12/14 06:28:32;;;;;;;14.40;12.73;;;;;;;1.12;85.87;98555.89;1850290;76;21372;-72
2020/12/14 06:31:00;;;;;;;18.15;14.80;;;;;;;1.08;85.99;98556.45;1847302;76;22143;-73
2020/12/14 06:33:40;;;;;;;21.00;15.32;;;;;;;1.08;86.08;98561.27;1854636;77;21509;-72
2020/12/14 06:36:21;;;;;;;23.92;16.57;;;;;;;1.08;86.20;98570.53;1815686;78;20924;-72
2020/12/14 06:38:53;;;;;;;24.07;16.07;;;;;;;1.10;86.28;98567.84;1791991;79;21042;-72
2020/12/14 06:41:22;;;;;;;19.55;13.25;;;;;;;1.12;86.23;98568.69;1788741;79;20972;-73
2020/12/14 06:44:07;;;;;;;17.65;13.83;;;;;;;1.13;86.31;98573.52;1780058;80;21480;-72
2020/12/14 06:46:35;;;;;;;14.98;13.05;;;;;;;1.13;86.24;98573.52;1778260;79;21054;-75
2020/12/14 06:49:05;;;;;;;11.93;8.25;;;;;;;1.14;86.11;98572.61;1788670;79;21101;-72
2020/12/14 06:51:52;;;;;;;15.05;10.03;;;;;;;1.15;85.98;98582.27;1783196;79;21019;-73
2020/12/14 06:54:42;;;;;;;18.92;11.63;;;;;;;1.14;85.88;98578.77;1788354;79;21055;-73
2020/12/14 06:57:17;;;;;;;15.78;11.33;;;;;;;1.12;85.89;98581.03;1775280;79;22679;-73
2020/12/14 06:59:53;;;;;;;14.70;11.40;;;;;;;1.11;86.04;98595.19;1777886;79;20968;-73
2020/12/14 07:05:33;;;;;;;16.27;11.40;;;;;;;1.13;86.03;98595.53;1782061;80;21007;-72
2020/12/14 07:08:04;;;;;;;14.28;10.65;;;;;;;1.15;86.03;98598.14;1772914;79;21000;-72
2020/12/14 07:10:33;;;;;;;15.28;10.40;;;;;;;1.15;86.10;98603.43;1811014;78;21445;-74
2020/12/14 07:13:02;;;;;;;15.53;11.33;;;;;;;1.14;85.92;98605.69;1812540;78;20972;-73
2020/12/14 07:15:33;;;;;;;19.25;11.80;;;;;;;1.16;85.83;98607.82;1811296;78;20975;-72
2020/12/14 07:18:11;;;;;;;16.80;11.55;;;;;;;1.16;85.80;98601.20;1818165;78;21019;-73
2020/12/14 07:20:52;;;;;;;17.30;12.43;;;;;;;1.17;85.81;98605.59;1782280;80;21065;-71
2020/12/14 07:26:22;;;;;;;19.48;13.85;;;;;;;1.22;85.77;98620.88;1778352;79;21049;-70
2020/12/14 07:28:54;;;;;;;19.25;15.20;;;;;;;1.24;85.73;98623.02;1783828;79;21548;-72
2020/12/14 07:31:23;;;;;;;23.18;15.50;;;;;;;1.28;85.73;98626.00;1810194;78;21610;-71
2020/12/14 07:33:56;;;;;;;18.25;12.95;;;;;;;1.30;85.62;98632.11;1786687;80;21001;-71
2020/12/14 07:36:28;;;;;;;26.80;16.50;;;;;;;1.32;85.58;98633.39;1807860;78;21539;-71
2020/12/14 07:38:57;;;;;;;15.65;13.75;;;;;;;1.34;85.45;98635.09;1807280;79;20940;-73
2020/12/14 07:41:25;;;;;;;17.95;14.63;;;;;;;1.37;85.43;98638.98;1782203;80;20959;-72
2020/12/14 07:43:56;;;;;;;15.55;13.58;;;;;;;1.40;85.32;98643.30;1809501;78;20916;-73
2020/12/14 07:46:33;;;;;;;19.17;13.35;;;;;;;1.41;85.25;98641.08;1778836;80;20931;-73
2020/12/14 07:49:05;;;;;;;22.25;17.95;;;;;;;1.41;85.09;98637.97;1811486;78;21194;-74
2020/12/14 07:51:44;;;;;;;15.28;11.65;;;;;;;1.43;84.97;98636.16;1806708;78;20999;-73
2020/12/14 07:57:26;;;;;;;23.60;15.88;;;;;;;1.47;84.80;98642.23;1782290;80;20935;-73
2020/12/14 07:59:45;;;;;;;11.65;10.45;;;;;;;1.52;84.82;98639.45;1779827;80;20948;-73
2020/12/14 08:02:15;;;;;;;12.25;11.05;;;;;;;1.51;84.55;98645.64;1809559;78;21800;-72
2020/12/14 08:04:45;;;;;;;13.40;10.82;;;;;;;1.51;84.38;98653.12;1801438;78;20952;-73
2020/12/14 08:07:12;;;;;;;18.37;14.73;;;;;;;1.52;84.26;98650.04;1800761;78;21019;-73
2020/12/14 08:09:45;;;;;;;17.12;14.40;;;;;;;1.54;84.37;98653.50;1806344;78;21111;-73
2020/12/14 08:12:13;;;;;;;14.85;12.00;;;;;;;1.55;84.46;98652.59;1783331;80;21503;-73
2020/12/14 08:14:47;;;;;;;13.55;10.40;;;;;;;1.56;84.61;98655.64;1799591;78;21374;-73
2020/12/14 08:17:16;;;;;;;12.05;10.45;;;;;;;1.57;84.51;98665.33;1755098;80;20931;-73
2020/12/14 08:19:45;;;;;;;10.90;9.58;;;;;;;1.58;84.37;98661.78;1800586;78;20987;-73
2020/12/14 08:22:12;;;;;;;12.80;11.18;;;;;;;1.59;84.36;98664.38;1812782;78;20968;-74
2020/12/14 08:24:41;;;;;;;14.53;11.90;;;;;;;1.61;84.33;98668.31;1803688;79;21039;-73
2020/12/14 08:27:12;;;;;;;11.45;10.18;;;;;;;1.62;84.47;98674.00;1792272;80;22327;-73
2020/12/14 08:30:01;;;;;;;16.32;12.75;;;;;;;1.64;84.64;98678.81;1774798;80;21035;-74
2020/12/14 08:33:12;;;;;;;16.90;12.53;;;;;;;1.69;84.33;98681.30;1873745;76;28051;-73
2020/12/14 08:35:43;;;;;;;10.55;9.30;;;;;;;1.67;84.17;98688.43;1843529;76;21566;-75
2020/12/14 08:38:15;;;;;;;10.48;9.38;;;;;;;1.67;84.14;98691.97;1849665;76;21361;-75
2020/12/14 08:41:01;;;;;;;13.65;11.18;;;;;;;1.67;84.12;98693.30;1791374;80;20996;-74
2020/12/14 08:43:30;;;;;;;12.30;10.85;;;;;;;1.68;84.14;98695.01;1802160;78;20939;-73
2020/12/14 08:46:10;;;;;;;11.15;9.30;;;;;;;1.68;84.30;98697.66;1797259;79;20954;-75
2020/12/14 08:48:55;;;;;;;10.55;8.73;;;;;;;1.70;84.30;98687.88;1804195;78;21447;-72
2020/12/14 08:51:27;;;;;;;11.75;9.23;;;;;;;1.68;83.80;98687.06;1814338;78;21237;-73
2020/12/14 08:57:00;;;;;;;13.85;11.53;;;;;;;1.67;83.87;98691.97;1813497;78;21003;-73
2020/12/14 08:59:27;;;;;;;12.80;10.10;;;;;;;1.71;83.94;98688.77;1794064;79;21379;-74
2020/12/14 09:02:02;;;;;;;13.72;11.35;;;;;;;1.71;83.99;98690.09;1824901;78;20999;-74
2020/12/14 09:04:32;;;;;;;12.63;10.03;;;;;;;1.72;83.90;98686.08;1796180;79;22102;-73
2020/12/14 09:06:59;;;;;;;12.82;10.80;;;;;;;1.73;83.93;98686.47;1824537;78;21006;-76
2020/12/14 09:09:37;;;;;;;12.68;11.38;;;;;;;1.72;83.67;98687.40;1794133;79;21361;-75
2020/12/14 09:12:12;;;;;;;9.95;8.78;;;;;;;1.73;83.62;98692.23;1803188;78;20919;-73
2020/12/14 09:14:39;;;;;;;13.48;10.50;;;;;;;1.75;83.62;98683.77;1816240;78;20989;-75
2020/12/14 09:17:17;;;;;;;12.93;9.65;;;;;;;1.73;83.36;98674.55;1791882;78;21061;-74
2020/12/14 09:19:51;;;;;;;13.03;11.05;;;;;;;1.75;83.48;98674.07;1798913;78;20885;-74
2020/12/14 09:22:25;;;;;;;16.00;10.70;;;;;;;1.74;83.57;98671.00;1809123;78;21479;-74
2020/12/14 09:24:54;;;;;;;10.32;8.75;;;;;;;1.76;83.54;98673.14;1796290;78;21623;-74
2020/12/14 09:27:22;;;;;;;11.33;10.03;;;;;;;1.78;83.58;98666.03;1812379;78;20932;-74
2020/12/14 09:29:50;;;;;;;15.38;11.70;;;;;;;1.78;83.63;98666.03;1790379;79;21155;-74
2020/12/14 09:32:18;;;;;;;12.65;9.90;;;;;;;1.80;83.58;98670.82;1823200;78;20952;-74
2020/12/14 09:34:46;;;;;;;13.22;9.70;;;;;;;1.83;83.52;98668.55;1819116;78;20954;-74
2020/12/14 09:37:14;;;;;;;11.97;10.18;;;;;;;1.87;83.44;98670.64;1783581;78;21476;-74
2020/12/14 09:39:42;;;;;;;11.35;9.25;;;;;;;1.84;82.93;98664.97;1809747;78;20990;-74
2020/12/14 09:42:11;;;;;;;10.98;8.60;;;;;;;1.87;82.88;98673.30;1805878;78;21201;-74
2020/12/14 09:44:39;;;;;;;11.30;9.95;;;;;;;1.83;82.80;98663.69;1783561;79;21098;-75
2020/12/14 09:47:06;;;;;;;10.68;9.45;;;;;;;1.85;82.73;98669.83;1784355;79;20980;-75
2020/12/14 09:49:35;;;;;;;12.20;10.43;;;;;;;1.86;82.96;98679.49;1823482;78;21062;-75
2020/12/14 09:52:02;;;;;;;13.20;11.70;;;;;;;1.85;82.96;98676.45;1796664;79;20998;-73
2020/12/14 09:57:10;;;;;;;11.40;9.25;;;;;;;1.85;83.19;98674.66;1793646;79;20982;-73
2020/12/14 09:59:39;;;;;;;13.03;10.58;;;;;;;1.85;83.05;98681.75;1797753;78;21053;-74
2020/12/14 10:02:07;;;;;;;11.25;10.10;;;;;;;1.85;82.89;98683.08;1796150;79;21063;-75
2020/12/14 10:04:34;;;;;;;10.90;9.60;;;;;;;1.86;82.87;98682.14;1799938;78;20915;-74
2020/12/14 10:07:02;;;;;;;11.90;9.73;;;;;;;1.83;82.74;98671.20;1795213;78;21453;-73
2020/12/14 10:09:31;;;;;;;13.98;11.00;;;;;;;1.84;82.77;98686.16;1772356;79;21026;-74
2020/12/14 10:11:58;;;;;;;12.10;10.82;;;;;;;1.84;82.80;98687.48;1781756;79;21081;-75
2020/12/14 10:14:27;;;;;;;13.10;11.12;;;;;;;1.85;82.74;98692.34;1798030;78;20920;-74
2020/12/14 10:16:54;;;;;;;15.10;11.93;;;;;;;1.85;82.82;98687.05;1817823;78;21010;-74
2020/12/14 10:19:22;;;;;;;13.43;11.28;;;;;;;1.88;83.01;98693.58;1794215;79;21367;-74
2020/12/14 10:21:52;;;;;;;13.55;10.75;;;;;;;1.89;83.13;98687.34;1797626;78;21014;-74
2020/12/14 10:24:20;;;;;;;19.10;13.28;;;;;;;1.93;83.07;98687.68;1794744;79;21475;-74
2020/12/14 10:26:50;;;;;;;15.08;11.75;;;;;;;1.94;83.18;98686.75;1826371;78;21066;-74
2020/12/14 10:29:21;;;;;;;14.50;12.37;;;;;;;1.95;83.00;98684.05;1793020;79;20984;-74
2020/12/14 10:31:48;;;;;;;13.90;11.22;;;;;;;1.96;82.61;98684.94;1773622;80;21195;-74
2020/12/14 10:34:16;;;;;;;11.63;10.38;;;;;;;1.97;82.71;98677.38;1788905;79;21509;-73
2020/12/14 10:36:46;;;;;;;13.90;11.18;;;;;;;1.99;82.37;98678.23;1820250;78;20923;-74
2020/12/14 10:39:13;;;;;;;11.63;10.43;;;;;;;1.99;82.27;98676.44;1789404;79;20943;-75
2020/12/14 10:41:40;;;;;;;13.32;11.83;;;;;;;2.00;82.37;98675.97;1803011;78;21010;-74
2020/12/14 10:44:08;;;;;;;14.25;12.75;;;;;;;2.01;82.41;98681.69;1799016;78;22696;-75
2020/12/14 10:46:36;;;;;;;12.20;10.95;;;;;;;2.04;82.52;98681.59;1794882;79;20950;-74
2020/12/14 10:49:03;;;;;;;13.85;12.37;;;;;;;2.08;82.57;98685.91;1817595;78;21469;-74
2020/12/14 10:51:31;;;;;;;15.03;12.00;;;;;;;2.10;82.68;98682.73;1795789;79;21590;-75
2020/12/14 10:57:03;;;;;;;14.25;12.47;;;;;;;2.16;82.65;98686.97;1796265;79;22498;-73
2020/12/14 10:59:31;;;;;;;14.23;12.37;;;;;;;2.19;82.56;98678.06;1818088;78;21480;-73
2020/12/14 11:01:59;;;;;;;12.85;11.55;;;;;;;2.23;82.44;98679.72;1793809;79;21038;-74
2020/12/14 11:04:27;;;;;;;19.02;13.90;;;;;;;2.26;82.34;98682.27;1808040;78;21154;-73
2020/12/14 11:06:54;;;;;;;13.70;10.72;;;;;;;2.27;82.30;98690.17;1797558;79;20926;-74
2020/12/14 11:09:21;;;;;;;15.45;12.90;;;;;;;2.29;81.98;98688.34;1811866;78;21113;-74
2020/12/14 11:11:49;;;;;;;15.35;12.07;;;;;;;2.30;81.82;98686.55;1794570;79;21670;-74
2020/12/14 11:14:17;;;;;;;16.50;13.08;;;;;;;2.31;81.70;98693.59;1814135;78;20935;-75
2020/12/14 11:16:46;;;;;;;13.95;11.75;;;;;;;2.31;81.66;98689.15;1795012;79;20903;-74
2020/12/14 11:19:14;;;;;;;14.05;12.43;;;;;;;2.33;81.83;98697.05;1820124;78;21018;-74
2020/12/14 11:21:41;;;;;;;14.43;12.93;;;;;;;2.35;81.88;98697.89;1813718;78;21901;-75
2020/12/14 11:24:09;;;;;;;14.68;13.10;;;;;;;2.35;81.94;98695.25;1796257;79;20992;-74
2020/12/14 11:26:37;;;;;;;12.15;10.63;;;;;;;2.38;81.80;98697.80;1803314;78;21014;-74
2020/12/14 11:29:04;;;;;;;11.53;9.75;;;;;;;2.41;81.59;98700.33;1818788;78;20935;-74
2020/12/14 11:31:32;;;;;;;13.80;10.08;;;;;;;2.43;81.35;98693.21;1777363;78;20990;-74
2020/12/14 11:34:01;;;;;;;14.87;11.05;;;;;;;2.45;81.13;98687.86;1825372;78;22299;-73
2020/12/14 11:36:31;;;;;;;11.45;10.18;;;;;;;2.44;81.05;98681.67;1820378;78;21094;-75
2020/12/14 11:38:59;;;;;;;13.85;10.63;;;;;;;2.44;80.92;98677.69;1819339;78;21015;-80
2020/12/14 11:41:27;;;;;;;9.85;8.25;;;;;;;2.43;80.70;98672.00;1797011;79;20938;-70
2020/12/14 11:43:55;;;;;;;11.35;10.15;;;;;;;2.43;80.73;98666.70;1780659;79;20892;-78
2020/12/14 11:46:25;;;;;;;10.40;9.18;;;;;;;2.43;80.53;98662.72;1816491;78;22268;-78
2020/12/14 11:48:54;;;;;;;11.80;9.88;;;;;;;2.45;80.54;98658.23;1813989;78;21361;-78
2020/12/14 11:51:22;;;;;;;14.50;11.50;;;;;;;2.45;80.39;98662.20;1780324;79;21531;-78
2020/12/14 11:53:49;;;;;;;12.10;10.20;;;;;;;2.46;80.31;98666.60;1781187;79;21654;-77
2020/12/14 11:56:17;;;;;;;11.12;9.60;;;;;;;2.48;80.06;98670.06;1775321;80;22896;-78
2020/12/14 11:58:45;;;;;;;18.57;16.60;;;;;;;2.52;80.03;98677.02;1792970;79;22009;-77